sensor_id;sensor_type;location;lat;lon;timestamp;pressure;altitude;pressure_sealevel;temperature;humidity
76853;BME280;65825;52.232;10.566;2023-04-08T00:00:34;101312.91;;;7.26;75.43
76853;BME280;65825;52.232;10.566;2023-04-08T00:03:00;101311.22;;;7.18;75.31
76853;BME280;65825;52.232;10.566;2023-04-08T00:05:26;101308.66;;;7.15;75.25
76853;BME280;65825;52.232;10.566;2023-04-08T00:07:51;101301.69;;;7.09;75.70
76853;BME280;65825;52.232;10.566;2023-04-08T00:10:17;101323.56;;;7.05;76.47
76853;BME280;65825;52.232;10.566;2023-04-08T00:12:42;101321.81;;;7.09;76.53
76853;BME280;65825;52.232;10.566;2023-04-08T00:15:08;101314.00;;;7.01;77.63
76853;BME280;65825;52.232;10.566;2023-04-08T00:17:33;101323.56;;;7.05;77.76
76853;BME280;65825;52.232;10.566;2023-04-08T00:19:58;101312.19;;;7.09;75.67
76853;BME280;65825;52.232;10.566;2023-04-08T00:22:24;101317.41;;;7.12;76.13
76853;BME280;65825;52.232;10.566;2023-04-08T00:24:50;101313.91;;;7.13;75.32
76853;BME280;65825;52.232;10.566;2023-04-08T00:27:15;101312.19;;;7.09;76.52
76853;BME280;65825;52.232;10.566;2023-04-08T00:29:40;101309.56;;;7.09;75.39
76853;BME280;65825;52.232;10.566;2023-04-08T00:32:05;101320.16;;;6.99;77.32
76853;BME280;65825;52.232;10.566;2023-04-08T00:34:31;101321.00;;;7.04;76.94
76853;BME280;65825;52.232;10.566;2023-04-08T00:36:56;101315.78;;;6.96;77.72
76853;BME280;65825;52.232;10.566;2023-04-08T00:39:22;101326.34;;;6.87;77.66
76853;BME280;65825;52.232;10.566;2023-04-08T00:41:47;101328.97;;;6.86;77.97
76853;BME280;65825;52.232;10.566;2023-04-08T00:44:12;101324.66;;;6.80;77.96
76853;BME280;65825;52.232;10.566;2023-04-08T00:46:38;101318.53;;;6.80;76.75
76853;BME280;65825;52.232;10.566;2023-04-08T00:49:05;101322.91;;;6.78;77.56
76853;BME280;65825;52.232;10.566;2023-04-08T00:51:31;101324.66;;;6.80;77.35
76853;BME280;65825;52.232;10.566;2023-04-08T00:53:57;101312.38;;;6.82;77.46
76853;BME280;65825;52.232;10.566;2023-04-08T00:56:24;101300.19;;;6.75;77.95
76853;BME280;65825;52.232;10.566;2023-04-08T00:58:51;101294.06;;;6.76;78.20
76853;BME280;65825;52.232;10.566;2023-04-08T01:01:35;101287.88;;;6.83;79.37
76853;BME280;65825;52.232;10.566;2023-04-08T01:04:19;101294.81;;;6.92;77.80
76853;BME280;65825;52.232;10.566;2023-04-08T01:06:52;101299.22;;;6.90;79.47
76853;BME280;65825;52.232;10.566;2023-04-08T01:09:22;101300.19;;;6.75;80.49
76853;BME280;65825;52.232;10.566;2023-04-08T01:11:51;101297.47;;;6.86;79.23
76853;BME280;65825;52.232;10.566;2023-04-08T01:14:22;101302.69;;;6.93;78.95
76853;BME280;65825;52.232;10.566;2023-04-08T01:16:49;101301.00;;;6.85;78.80
76853;BME280;65825;52.232;10.566;2023-04-08T01:19:28;101310.59;;;6.84;78.49
76853;BME280;65825;52.232;10.566;2023-04-08T01:22:01;101309.66;;;6.94;77.94
76853;BME280;65825;52.232;10.566;2023-04-08T01:24:30;101318.47;;;6.90;78.29
76853;BME280;65825;52.232;10.566;2023-04-08T01:26:59;101303.63;;;6.83;79.06
76853;BME280;65825;52.232;10.566;2023-04-08T01:29:26;101305.41;;;6.81;80.17
76853;BME280;65825;52.232;10.566;2023-04-08T01:31:53;101293.97;;;6.90;79.64
76853;BME280;65825;52.232;10.566;2023-04-08T01:34:19;101298.28;;;6.95;78.06
76853;BME280;65825;52.232;10.566;2023-04-08T01:36:46;101305.31;;;6.93;79.65
76853;BME280;65825;52.232;10.566;2023-04-08T01:39:14;101294.78;;;6.95;78.80
76853;BME280;65825;52.232;10.566;2023-04-08T01:41:41;101301.78;;;6.94;78.16
76853;BME280;65825;52.232;10.566;2023-04-08T01:44:08;101306.19;;;6.91;78.34
76853;BME280;65825;52.232;10.566;2023-04-08T01:46:34;101308.84;;;6.86;78.01
76853;BME280;65825;52.232;10.566;2023-04-08T01:49:01;101306.25;;;6.83;78.90
76853;BME280;65825;52.232;10.566;2023-04-08T01:51:27;101306.28;;;6.79;79.92
76853;BME280;65825;52.232;10.566;2023-04-08T01:53:53;101304.47;;;6.88;78.39
76853;BME280;65825;52.232;10.566;2023-04-08T01:56:21;101302.72;;;6.84;78.84
76853;BME280;65825;52.232;10.566;2023-04-08T01:58:50;101312.38;;;6.85;78.46
76853;BME280;65825;52.232;10.566;2023-04-08T02:01:19;101308.97;;;6.71;79.65
76853;BME280;65825;52.232;10.566;2023-04-08T02:03:45;101310.59;;;6.86;77.92
76853;BME280;65825;52.232;10.566;2023-04-08T02:06:12;101300.16;;;6.83;78.99
76853;BME280;65825;52.232;10.566;2023-04-08T02:08:37;101312.38;;;6.79;78.62
76853;BME280;65825;52.232;10.566;2023-04-08T02:11:02;101305.44;;;6.69;79.43
76853;BME280;65825;52.232;10.566;2023-04-08T02:13:29;101308.97;;;6.71;78.92
76853;BME280;65825;52.232;10.566;2023-04-08T02:16:28;101316.88;;;6.61;80.22
76853;BME280;65825;52.232;10.566;2023-04-08T02:18:59;101320.34;;;6.66;80.07
76853;BME280;65825;52.232;10.566;2023-04-08T02:21:34;101324.81;;;6.50;81.41
76853;BME280;65825;52.232;10.566;2023-04-08T02:24:04;101324.81;;;6.50;81.59
76853;BME280;65825;52.232;10.566;2023-04-08T02:26:32;101314.25;;;6.64;79.08
76853;BME280;65825;52.232;10.566;2023-04-08T02:28:58;101322.97;;;6.69;79.86
76853;BME280;65825;52.232;10.566;2023-04-08T02:31:25;101319.50;;;6.62;80.17
76853;BME280;65825;52.232;10.566;2023-04-08T02:33:51;101323.84;;;6.68;80.13
76853;BME280;65825;52.232;10.566;2023-04-08T02:36:16;101322.97;;;6.64;79.57
76853;BME280;65825;52.232;10.566;2023-04-08T02:38:47;101315.97;;;6.66;79.35
76853;BME280;65825;52.232;10.566;2023-04-08T02:41:12;101323.84;;;6.68;79.13
76853;BME280;65825;52.232;10.566;2023-04-08T02:43:37;101315.09;;;6.67;79.82
76853;BME280;65825;52.232;10.566;2023-04-08T02:46:02;101324.75;;;6.65;80.21
76853;BME280;65825;52.232;10.566;2023-04-08T02:48:29;101330.03;;;6.55;81.98
76853;BME280;65825;52.232;10.566;2023-04-08T02:50:54;101336.13;;;6.61;81.24
76853;BME280;65825;52.232;10.566;2023-04-08T02:53:21;101336.16;;;6.54;81.13
76853;BME280;65825;52.232;10.566;2023-04-08T02:55:47;101334.38;;;6.60;81.00
76853;BME280;65825;52.232;10.566;2023-04-08T02:58:12;101333.47;;;6.67;80.48
76853;BME280;65825;52.232;10.566;2023-04-08T03:00:37;101332.56;;;6.67;81.42
76853;BME280;65825;52.232;10.566;2023-04-08T03:03:04;101331.69;;;6.71;80.68
76853;BME280;65825;52.232;10.566;2023-04-08T03:05:30;101338.72;;;6.69;80.50
76853;BME280;65825;52.232;10.566;2023-04-08T03:07:56;101344.88;;;6.56;81.51
76853;BME280;65825;52.232;10.566;2023-04-08T03:10:21;101329.09;;;6.65;80.58
76853;BME280;65825;52.232;10.566;2023-04-08T03:12:46;101335.19;;;6.68;80.99
76853;BME280;65825;52.232;10.566;2023-04-08T03:15:12;101343.06;;;6.73;79.08
76853;BME280;65825;52.232;10.566;2023-04-08T03:17:37;101334.31;;;6.75;79.99
76853;BME280;65825;52.232;10.566;2023-04-08T03:20:02;101350.03;;;6.74;79.35
76853;BME280;65825;52.232;10.566;2023-04-08T03:22:29;101339.56;;;6.71;80.06
76853;BME280;65825;52.232;10.566;2023-04-08T03:24:54;101347.47;;;6.65;81.41
76853;BME280;65825;52.232;10.566;2023-04-08T03:27:19;101349.19;;;6.66;81.42
76853;BME280;65825;52.232;10.566;2023-04-08T03:29:45;101347.38;;;6.77;80.12
76853;BME280;65825;52.232;10.566;2023-04-08T03:32:11;101337.81;;;6.70;81.59
76853;BME280;65825;52.232;10.566;2023-04-08T03:34:36;101339.59;;;6.68;81.16
76853;BME280;65825;52.232;10.566;2023-04-08T03:37:01;101338.72;;;6.67;80.17
76853;BME280;65825;52.232;10.566;2023-04-08T03:39:27;101343.94;;;6.66;81.52
76853;BME280;65825;52.232;10.566;2023-04-08T03:41:52;101342.28;;;6.53;81.75
76853;BME280;65825;52.232;10.566;2023-04-08T03:44:18;101345.75;;;6.56;80.70
76853;BME280;65825;52.232;10.566;2023-04-08T03:46:43;101344.06;;;6.46;82.12
76853;BME280;65825;52.232;10.566;2023-04-08T03:49:08;101350.13;;;6.57;81.87
76853;BME280;65825;52.232;10.566;2023-04-08T03:51:33;101350.97;;;6.64;81.86
76853;BME280;65825;52.232;10.566;2023-04-08T03:53:59;101351.84;;;6.61;81.08
76853;BME280;65825;52.232;10.566;2023-04-08T03:56:24;101353.59;;;6.62;81.59
76853;BME280;65825;52.232;10.566;2023-04-08T03:58:50;101344.81;;;6.71;81.28
76853;BME280;65825;52.232;10.566;2023-04-08T04:01:15;101354.53;;;6.57;80.93
76853;BME280;65825;52.232;10.566;2023-04-08T04:03:40;101353.63;;;6.53;81.69
76853;BME280;65825;52.232;10.566;2023-04-08T04:06:06;101352.78;;;6.53;81.40
76853;BME280;65825;52.232;10.566;2023-04-08T04:08:31;101358.88;;;6.55;81.21
76853;BME280;65825;52.232;10.566;2023-04-08T04:10:58;101359.78;;;6.48;81.20
76853;BME280;65825;52.232;10.566;2023-04-08T04:13:23;101366.78;;;6.49;80.89
76853;BME280;65825;52.232;10.566;2023-04-08T04:15:48;101372.03;;;6.47;81.64
76853;BME280;65825;52.232;10.566;2023-04-08T04:18:13;101367.66;;;6.46;82.02
76853;BME280;65825;52.232;10.566;2023-04-08T04:20:40;101376.38;;;6.50;81.94
76853;BME280;65825;52.232;10.566;2023-04-08T04:23:06;101377.28;;;6.50;81.12
76853;BME280;65825;52.232;10.566;2023-04-08T04:25:31;101375.56;;;6.40;83.14
76853;BME280;65825;52.232;10.566;2023-04-08T04:27:57;101378.16;;;6.48;82.73
76853;BME280;65825;52.232;10.566;2023-04-08T04:30:22;101382.53;;;6.44;82.46
76853;BME280;65825;52.232;10.566;2023-04-08T04:32:47;101381.63;;;6.51;81.80
76853;BME280;65825;52.232;10.566;2023-04-08T04:35:13;101382.50;;;6.47;82.53
76853;BME280;65825;52.232;10.566;2023-04-08T04:37:38;101390.31;;;6.61;81.27
76853;BME280;65825;52.232;10.566;2023-04-08T04:40:04;101389.47;;;6.59;81.74
76853;BME280;65825;52.232;10.566;2023-04-08T04:42:30;101385.13;;;6.50;81.71
76853;BME280;65825;52.232;10.566;2023-04-08T04:44:55;101397.38;;;6.50;81.43
76853;BME280;65825;52.232;10.566;2023-04-08T04:47:21;101395.59;;;6.56;81.85
76853;BME280;65825;52.232;10.566;2023-04-08T04:49:46;101394.69;;;6.63;81.39
76853;BME280;65825;52.232;10.566;2023-04-08T04:52:11;101400.00;;;6.54;82.16
76853;BME280;65825;52.232;10.566;2023-04-08T04:54:36;101405.25;;;6.51;82.46
76853;BME280;65825;52.232;10.566;2023-04-08T04:57:02;101402.63;;;6.54;81.62
76853;BME280;65825;52.232;10.566;2023-04-08T04:59:27;101405.25;;;6.50;82.44
76853;BME280;65825;52.232;10.566;2023-04-08T05:01:52;101408.75;;;6.52;82.52
76853;BME280;65825;52.232;10.566;2023-04-08T05:04:17;101411.34;;;6.53;82.88
76853;BME280;65825;52.232;10.566;2023-04-08T05:06:43;101405.19;;;6.63;81.02
76853;BME280;65825;52.232;10.566;2023-04-08T05:09:08;101406.91;;;6.66;81.96
76853;BME280;65825;52.232;10.566;2023-04-08T05:11:33;101412.16;;;6.64;81.51
76853;BME280;65825;52.232;10.566;2023-04-08T05:13:58;101408.66;;;6.71;80.72
76853;BME280;65825;52.232;10.566;2023-04-08T05:16:24;101412.19;;;6.61;82.04
76853;BME280;65825;52.232;10.566;2023-04-08T05:18:49;101417.41;;;6.69;82.85
76853;BME280;65825;52.232;10.566;2023-04-08T05:21:15;101417.41;;;6.67;82.66
76853;BME280;65825;52.232;10.566;2023-04-08T05:23:40;101419.16;;;6.68;82.03
76853;BME280;65825;52.232;10.566;2023-04-08T05:26:06;101424.38;;;6.74;81.36
76853;BME280;65825;52.232;10.566;2023-04-08T05:28:32;101420.00;;;6.78;80.98
76853;BME280;65825;52.232;10.566;2023-04-08T05:30:58;101421.75;;;6.76;81.81
76853;BME280;65825;52.232;10.566;2023-04-08T05:33:23;101420.00;;;6.72;82.17
76853;BME280;65825;52.232;10.566;2023-04-08T05:35:50;101426.13;;;6.69;82.89
76853;BME280;65825;52.232;10.566;2023-04-08T05:38:15;101424.41;;;6.67;83.45
76853;BME280;65825;52.232;10.566;2023-04-08T05:40:40;101419.16;;;6.70;83.85
76853;BME280;65825;52.232;10.566;2023-04-08T05:43:06;101422.63;;;6.73;82.72
76853;BME280;65825;52.232;10.566;2023-04-08T05:45:31;101427.88;;;6.76;82.30
76853;BME280;65825;52.232;10.566;2023-04-08T05:47:59;101428.78;;;6.65;82.70
76853;BME280;65825;52.232;10.566;2023-04-08T05:50:24;101440.16;;;6.61;84.65
76853;BME280;65825;52.232;10.566;2023-04-08T05:52:49;101440.09;;;6.76;83.87
76853;BME280;65825;52.232;10.566;2023-04-08T05:55:14;101437.47;;;6.79;83.30
76853;BME280;65825;52.232;10.566;2023-04-08T05:57:40;101442.69;;;6.85;83.88
76853;BME280;65825;52.232;10.566;2023-04-08T06:00:08;101447.06;;;6.89;82.45
76853;BME280;65825;52.232;10.566;2023-04-08T06:02:36;101442.66;;;6.89;83.72
76853;BME280;65825;52.232;10.566;2023-04-08T06:05:02;101444.41;;;6.96;82.95
76853;BME280;65825;52.232;10.566;2023-04-08T06:07:28;101449.63;;;7.01;82.93
76853;BME280;65825;52.232;10.566;2023-04-08T06:09:54;101454.81;;;7.10;82.17
76853;BME280;65825;52.232;10.566;2023-04-08T06:12:20;101458.38;;;7.01;82.74
76853;BME280;65825;52.232;10.566;2023-04-08T06:14:45;101457.47;;;7.05;82.99
76853;BME280;65825;52.232;10.566;2023-04-08T06:17:10;101454.78;;;7.17;82.61
76853;BME280;65825;52.232;10.566;2023-04-08T06:19:35;101460.00;;;7.25;81.89
76853;BME280;65825;52.232;10.566;2023-04-08T06:22:03;101467.84;;;7.26;82.24
76853;BME280;65825;52.232;10.566;2023-04-08T06:24:28;101466.94;;;7.30;81.16
76853;BME280;65825;52.232;10.566;2023-04-08T06:26:55;101464.31;;;7.30;81.33
76853;BME280;65825;52.232;10.566;2023-04-08T06:29:21;101474.81;;;7.33;80.86
76853;BME280;65825;52.232;10.566;2023-04-08T06:31:47;101476.56;;;7.36;81.06
76853;BME280;65825;52.232;10.566;2023-04-08T06:34:12;101479.19;;;7.34;81.64
76853;BME280;65825;52.232;10.566;2023-04-08T06:36:37;101479.19;;;7.33;81.40
76853;BME280;65825;52.232;10.566;2023-04-08T06:39:03;101480.06;;;7.29;81.13
76853;BME280;65825;52.232;10.566;2023-04-08T06:41:29;101481.94;;;7.16;82.18
76853;BME280;65825;52.232;10.566;2023-04-08T06:43:54;101489.78;;;7.22;82.01
76853;BME280;65825;52.232;10.566;2023-04-08T06:46:19;101495.91;;;7.21;81.56
76853;BME280;65825;52.232;10.566;2023-04-08T06:48:45;101494.13;;;7.20;82.63
76853;BME280;65825;52.232;10.566;2023-04-08T06:51:10;101495.06;;;7.10;83.76
76853;BME280;65825;52.232;10.566;2023-04-08T06:53:36;101489.78;;;7.21;81.95
76853;BME280;65825;52.232;10.566;2023-04-08T06:56:01;101502.00;;;7.22;82.16
76853;BME280;65825;52.232;10.566;2023-04-08T06:58:26;101507.25;;;7.20;81.93
76853;BME280;65825;52.232;10.566;2023-04-08T07:00:55;101506.44;;;7.14;82.52
76853;BME280;65825;52.232;10.566;2023-04-08T07:03:20;101500.22;;;7.28;82.53
76853;BME280;65825;52.232;10.566;2023-04-08T07:05:46;101501.97;;;7.31;82.06
76853;BME280;65825;52.232;10.566;2023-04-08T07:08:11;101507.09;;;7.49;80.96
76853;BME280;65825;52.232;10.566;2023-04-08T07:10:37;101505.34;;;7.51;81.52
76853;BME280;65825;52.232;10.566;2023-04-08T07:13:03;101498.28;;;7.59;80.85
76853;BME280;65825;52.232;10.566;2023-04-08T07:15:28;101504.38;;;7.65;82.09
76853;BME280;65825;52.232;10.566;2023-04-08T07:17:54;101503.44;;;7.78;81.38
76853;BME280;65825;52.232;10.566;2023-04-08T07:20:21;101505.13;;;7.84;81.63
76853;BME280;65825;52.232;10.566;2023-04-08T07:22:47;101507.69;;;7.94;81.22
76853;BME280;65825;52.232;10.566;2023-04-08T07:25:12;101505.00;;;8.00;80.99
76853;BME280;65825;52.232;10.566;2023-04-08T07:27:37;101503.06;;;8.19;78.53
76853;BME280;65825;52.232;10.566;2023-04-08T07:30:03;101510.13;;;8.14;79.34
76853;BME280;65825;52.232;10.566;2023-04-08T07:32:28;101511.03;;;8.08;80.51
76853;BME280;65825;52.232;10.566;2023-04-08T07:34:53;101518.91;;;8.13;80.32
76853;BME280;65825;52.232;10.566;2023-04-08T07:37:19;101522.38;;;8.18;79.83
76853;BME280;65825;52.232;10.566;2023-04-08T07:39:44;101529.44;;;8.11;80.07
76853;BME280;65825;52.232;10.566;2023-04-08T07:42:09;101525.06;;;8.12;79.09
76853;BME280;65825;52.232;10.566;2023-04-08T07:44:34;101528.53;;;8.14;79.34
76853;BME280;65825;52.232;10.566;2023-04-08T07:47:00;101531.16;;;8.14;79.76
76853;BME280;65825;52.232;10.566;2023-04-08T07:49:25;101524.97;;;8.19;78.94
76853;BME280;65825;52.232;10.566;2023-04-08T07:51:51;101517.13;;;8.18;79.58
76853;BME280;65825;52.232;10.566;2023-04-08T07:54:17;101518.78;;;8.29;78.91
76853;BME280;65825;52.232;10.566;2023-04-08T07:56:42;101531.91;;;8.32;79.12
76853;BME280;65825;52.232;10.566;2023-04-08T07:59:09;101534.59;;;8.28;79.23
76853;BME280;65825;52.232;10.566;2023-04-08T08:01:35;101542.50;;;8.25;79.21
76853;BME280;65825;52.232;10.566;2023-04-08T08:04:01;101542.50;;;8.22;79.53
76853;BME280;65825;52.232;10.566;2023-04-08T08:06:26;101537.19;;;8.32;78.64
76853;BME280;65825;52.232;10.566;2023-04-08T08:08:52;101547.72;;;8.29;78.76
76853;BME280;65825;52.232;10.566;2023-04-08T08:11:17;101544.25;;;8.24;79.31
76853;BME280;65825;52.232;10.566;2023-04-08T08:13:43;101549.50;;;8.27;77.89
76853;BME280;65825;52.232;10.566;2023-04-08T08:16:08;101553.03;;;8.19;79.10
76853;BME280;65825;52.232;10.566;2023-04-08T08:18:35;101564.56;;;8.04;79.67
76853;BME280;65825;52.232;10.566;2023-04-08T08:21:01;101570.72;;;8.02;79.92
76853;BME280;65825;52.232;10.566;2023-04-08T08:23:27;101565.47;;;8.02;79.86
76853;BME280;65825;52.232;10.566;2023-04-08T08:26:03;101563.63;;;8.08;79.59
76853;BME280;65825;52.232;10.566;2023-04-08T08:28:30;101571.56;;;8.07;79.93
76853;BME280;65825;52.232;10.566;2023-04-08T08:30:56;101569.72;;;8.18;79.84
76853;BME280;65825;52.232;10.566;2023-04-08T08:33:21;101568.84;;;8.20;78.66
76853;BME280;65825;52.232;10.566;2023-04-08T08:35:46;101574.09;;;8.19;80.45
76853;BME280;65825;52.232;10.566;2023-04-08T08:38:11;101571.44;;;8.28;80.11
76853;BME280;65825;52.232;10.566;2023-04-08T08:40:38;101569.59;;;8.36;79.05
76853;BME280;65825;52.232;10.566;2023-04-08T08:43:03;101577.47;;;8.39;79.26
76853;BME280;65825;52.232;10.566;2023-04-08T08:45:28;101579.13;;;8.49;78.79
76853;BME280;65825;52.232;10.566;2023-04-08T08:47:55;101575.53;;;8.57;78.58
76853;BME280;65825;52.232;10.566;2023-04-08T08:50:20;101577.34;;;8.51;77.81
76853;BME280;65825;52.232;10.566;2023-04-08T08:52:50;101579.97;;;8.54;77.74
76853;BME280;65825;52.232;10.566;2023-04-08T08:55:19;101577.34;;;8.48;78.29
76853;BME280;65825;52.232;10.566;2023-04-08T08:57:45;101565.69;;;8.76;77.85
76853;BME280;65825;52.232;10.566;2023-04-08T09:00:11;101569.94;;;8.89;77.21
76853;BME280;65825;52.232;10.566;2023-04-08T09:02:40;101575.19;;;8.90;77.00
76853;BME280;65825;52.232;10.566;2023-04-08T09:05:05;101586.72;;;8.79;77.88
76853;BME280;65825;52.232;10.566;2023-04-08T09:07:34;101591.13;;;8.78;78.49
76853;BME280;65825;52.232;10.566;2023-04-08T09:10:00;101592.06;;;8.71;78.40
76853;BME280;65825;52.232;10.566;2023-04-08T09:12:26;101599.34;;;8.44;79.10
76853;BME280;65825;52.232;10.566;2023-04-08T09:17:37;101598.41;;;8.48;78.42
76853;BME280;65825;52.232;10.566;2023-04-08T09:20:12;101605.31;;;8.61;77.76
76853;BME280;65825;52.232;10.566;2023-04-08T09:25:24;101616.75;;;8.60;78.32
76853;BME280;65825;52.232;10.566;2023-04-08T09:27:49;101622.00;;;8.58;78.71
76853;BME280;65825;52.232;10.566;2023-04-08T09:30:16;101621.03;;;8.68;77.27
76853;BME280;65825;52.232;10.566;2023-04-08T09:32:49;101619.31;;;8.64;77.79
76853;BME280;65825;52.232;10.566;2023-04-08T09:35:19;101623.88;;;8.46;78.51
76853;BME280;65825;52.232;10.566;2023-04-08T09:37:45;101631.69;;;8.56;79.02
76853;BME280;65825;52.232;10.566;2023-04-08T09:40:11;101621.13;;;8.59;78.91
76853;BME280;65825;52.232;10.566;2023-04-08T09:42:39;101621.97;;;8.63;78.59
76853;BME280;65825;52.232;10.566;2023-04-08T09:45:08;101624.53;;;8.70;78.16
76853;BME280;65825;52.232;10.566;2023-04-08T09:47:51;101630.69;;;8.71;78.81
76853;BME280;65825;52.232;10.566;2023-04-08T09:50:23;101621.81;;;8.78;77.29
76853;BME280;65825;52.232;10.566;2023-04-08T09:52:56;101618.03;;;9.06;76.62
76853;BME280;65825;52.232;10.566;2023-04-08T09:55:26;101616.31;;;9.02;77.53
76853;BME280;65825;52.232;10.566;2023-04-08T09:57:58;101619.03;;;8.94;76.41
76853;BME280;65825;52.232;10.566;2023-04-08T10:00:48;101617.41;;;8.81;77.86
76853;BME280;65825;52.232;10.566;2023-04-08T10:03:34;101621.88;;;8.73;78.36
76853;BME280;65825;52.232;10.566;2023-04-08T10:06:01;101621.97;;;8.64;78.32
76853;BME280;65825;52.232;10.566;2023-04-08T10:11:42;101637.72;;;8.67;78.09
76853;BME280;65825;52.232;10.566;2023-04-08T10:14:08;101638.56;;;8.72;78.64
76853;BME280;65825;52.232;10.566;2023-04-08T10:16:33;101649.34;;;8.41;79.74
76853;BME280;65825;52.232;10.566;2023-04-08T10:18:59;101645.88;;;8.34;81.25
76853;BME280;65825;52.232;10.566;2023-04-08T10:21:38;101650.13;;;8.50;80.59
76853;BME280;65825;52.232;10.566;2023-04-08T10:24:07;101649.19;;;8.62;79.74
76853;BME280;65825;52.232;10.566;2023-04-08T10:26:37;101650.88;;;8.69;79.27
76853;BME280;65825;52.232;10.566;2023-04-08T10:31:46;101650.78;;;8.79;77.90
76853;BME280;65825;52.232;10.566;2023-04-08T10:37:34;101656.00;;;8.84;79.07
76853;BME280;65825;52.232;10.566;2023-04-08T10:40:00;101662.13;;;8.86;78.35
76853;BME280;65825;52.232;10.566;2023-04-08T10:42:26;101657.69;;;8.91;78.81
76853;BME280;65825;52.232;10.566;2023-04-08T10:44:52;101652.22;;;9.09;77.56
76853;BME280;65825;52.232;10.566;2023-04-08T10:47:24;101661.72;;;9.26;77.54
76853;BME280;65825;52.232;10.566;2023-04-08T10:49:50;101649.00;;;9.60;76.86
76853;BME280;65825;52.232;10.566;2023-04-08T10:52:15;101651.72;;;9.55;75.96
76853;BME280;65825;52.232;10.566;2023-04-08T10:54:45;101663.84;;;9.68;75.88
76853;BME280;65825;52.232;10.566;2023-04-08T10:57:12;101661.09;;;9.79;75.18
76853;BME280;65825;52.232;10.566;2023-04-08T10:59:37;101658.38;;;9.83;75.22
76853;BME280;65825;52.232;10.566;2023-04-08T11:02:04;101659.72;;;10.16;74.38
76853;BME280;65825;52.232;10.566;2023-04-08T11:04:29;101648.59;;;10.52;72.36
76853;BME280;65825;52.232;10.566;2023-04-08T11:06:54;101645.03;;;11.04;70.73
76853;BME280;65825;52.232;10.566;2023-04-08T11:09:20;101643.91;;;11.17;70.13
76853;BME280;65825;52.232;10.566;2023-04-08T11:11:45;101652.81;;;11.12;71.28
76853;BME280;65825;52.232;10.566;2023-04-08T11:14:12;101660.69;;;11.15;70.86
76853;BME280;65825;52.232;10.566;2023-04-08T11:16:38;101655.56;;;11.06;70.78
76853;BME280;65825;52.232;10.566;2023-04-08T11:19:04;101661.19;;;10.88;71.21
76853;BME280;65825;52.232;10.566;2023-04-08T11:21:31;101655.19;;;10.78;70.79
76853;BME280;65825;52.232;10.566;2023-04-08T11:23:56;101648.34;;;10.67;71.61
76853;BME280;65825;52.232;10.566;2023-04-08T11:26:22;101648.22;;;10.74;70.81
76853;BME280;65825;52.232;10.566;2023-04-08T11:28:49;101652.59;;;10.75;69.67
76853;BME280;65825;52.232;10.566;2023-04-08T11:31:16;101650.09;;;10.68;70.78
76853;BME280;65825;52.232;10.566;2023-04-08T11:33:45;101651.03;;;10.62;71.35
76853;BME280;65825;52.232;10.566;2023-04-08T11:36:11;101656.25;;;10.68;70.16
76853;BME280;65825;52.232;10.566;2023-04-08T11:38:40;101653.31;;;10.85;70.28
76853;BME280;65825;52.232;10.566;2023-04-08T11:41:08;101656.91;;;10.81;70.56
76853;BME280;65825;52.232;10.566;2023-04-08T11:43:35;101645.19;;;10.97;70.01
76853;BME280;65825;52.232;10.566;2023-04-08T11:46:09;101646.63;;;11.13;69.40
76853;BME280;65825;52.232;10.566;2023-04-08T11:48:34;101647.69;;;11.04;69.41
76853;BME280;65825;52.232;10.566;2023-04-08T11:51:05;101657.94;;;11.19;70.99
76853;BME280;65825;52.232;10.566;2023-04-08T11:53:33;101656.38;;;11.55;68.09
76853;BME280;65825;52.232;10.566;2023-04-08T11:56:15;101647.06;;;11.80;66.22
76853;BME280;65825;52.232;10.566;2023-04-08T11:58:40;101645.56;;;11.67;68.32
76853;BME280;65825;52.232;10.566;2023-04-08T12:01:06;101647.59;;;11.53;67.31
76853;BME280;65825;52.232;10.566;2023-04-08T12:03:31;101652.50;;;11.74;67.35
76853;BME280;65825;52.232;10.566;2023-04-08T12:05:56;101649.38;;;11.52;67.25
76853;BME280;65825;52.232;10.566;2023-04-08T12:08:21;101652.72;;;11.16;69.64
76853;BME280;65825;52.232;10.566;2023-04-08T12:10:47;101662.22;;;11.26;68.77
76853;BME280;65825;52.232;10.566;2023-04-08T12:13:12;101664.75;;;11.32;68.55
76853;BME280;65825;52.232;10.566;2023-04-08T12:15:41;101665.97;;;11.15;68.60
76853;BME280;65825;52.232;10.566;2023-04-08T12:18:06;101665.19;;;11.10;68.50
76853;BME280;65825;52.232;10.566;2023-04-08T12:20:31;101671.78;;;10.85;70.07
76853;BME280;65825;52.232;10.566;2023-04-08T12:22:56;101664.75;;;10.85;70.91
76853;BME280;65825;52.232;10.566;2023-04-08T12:25:22;101669.50;;;10.65;70.99
76853;BME280;65825;52.232;10.566;2023-04-08T12:27:47;101671.84;;;10.83;71.34
76853;BME280;65825;52.232;10.566;2023-04-08T12:30:12;101670.69;;;10.99;70.97
76853;BME280;65825;52.232;10.566;2023-04-08T12:32:38;101673.09;;;11.10;69.68
76853;BME280;65825;52.232;10.566;2023-04-08T12:35:04;101676.94;;;10.92;71.23
76853;BME280;65825;52.232;10.566;2023-04-08T12:37:30;101682.03;;;11.04;69.50
76853;BME280;65825;52.232;10.566;2023-04-08T12:39:57;101671.47;;;11.04;70.62
76853;BME280;65825;52.232;10.566;2023-04-08T12:42:22;101669.91;;;10.93;70.66
76853;BME280;65825;52.232;10.566;2023-04-08T12:44:47;101668.13;;;10.93;71.32
76853;BME280;65825;52.232;10.566;2023-04-08T12:47:13;101656.41;;;11.08;70.40
76853;BME280;65825;52.232;10.566;2023-04-08T12:49:38;101662.22;;;11.28;68.37
76853;BME280;65825;52.232;10.566;2023-04-08T12:52:03;101659.72;;;11.20;69.84
76853;BME280;65825;52.232;10.566;2023-04-08T12:54:29;101656.81;;;11.34;68.77
76853;BME280;65825;52.232;10.566;2023-04-08T12:56:55;101653.94;;;11.44;68.74
76853;BME280;65825;52.232;10.566;2023-04-08T12:59:21;101663.72;;;11.39;67.92